sensor_id;sensor_type;location;lat;lon;timestamp;P1;durP1;ratioP1;P2;durP2;ratioP2
48751;SDS011;34544;48.836;9.174;2022-11-04T00:01:22;1.67;;;0.80;;
48751;SDS011;34544;48.836;9.174;2022-11-04T00:03:47;1.05;;;0.82;;
48751;SDS011;34544;48.836;9.174;2022-11-04T00:06:14;0.70;;;0.60;;
48751;SDS011;34544;48.836;9.174;2022-11-04T00:08:39;1.63;;;0.82;;
48751;SDS011;34544;48.836;9.174;2022-11-04T00:11:05;1.10;;;0.95;;
48751;SDS011;34544;48.836;9.174;2022-11-04T00:13:49;1.40;;;1.00;;
48751;SDS011;34544;48.836;9.174;2022-11-04T00:16:15;1.27;;;0.88;;
48751;SDS011;34544;48.836;9.174;2022-11-04T00:18:59;2.00;;;1.25;;
48751;SDS011;34544;48.836;9.174;2022-11-04T00:21:26;1.10;;;0.98;;
48751;SDS011;34544;48.836;9.174;2022-11-04T00:24:11;1.48;;;1.00;;
48751;SDS011;34544;48.836;9.174;2022-11-04T00:26:56;2.00;;;0.80;;
48751;SDS011;34544;48.836;9.174;2022-11-04T00:29:41;1.48;;;0.93;;
48751;SDS011;34544;48.836;9.174;2022-11-04T00:32:07;0.77;;;0.77;;
48751;SDS011;34544;48.836;9.174;2022-11-04T00:34:52;1.13;;;0.90;;
48751;SDS011;34544;48.836;9.174;2022-11-04T00:37:19;1.23;;;0.75;;
48751;SDS011;34544;48.836;9.174;2022-11-04T00:39:44;2.20;;;0.60;;
48751;SDS011;34544;48.836;9.174;2022-11-04T00:42:10;1.55;;;0.90;;
48751;SDS011;34544;48.836;9.174;2022-11-04T00:44:36;0.73;;;0.68;;
48751;SDS011;34544;48.836;9.174;2022-11-04T00:47:01;1.27;;;0.93;;
48751;SDS011;34544;48.836;9.174;2022-11-04T00:49:27;0.93;;;0.55;;
48751;SDS011;34544;48.836;9.174;2022-11-04T00:51:53;1.63;;;0.80;;
48751;SDS011;34544;48.836;9.174;2022-11-04T00:54:19;1.90;;;0.60;;
48751;SDS011;34544;48.836;9.174;2022-11-04T00:56:44;1.02;;;0.50;;
48751;SDS011;34544;48.836;9.174;2022-11-04T00:59:12;0.63;;;0.52;;
48751;SDS011;34544;48.836;9.174;2022-11-04T01:01:39;1.35;;;0.60;;
48751;SDS011;34544;48.836;9.174;2022-11-04T01:04:04;1.45;;;0.70;;
48751;SDS011;34544;48.836;9.174;2022-11-04T01:06:30;3.25;;;0.65;;
48751;SDS011;34544;48.836;9.174;2022-11-04T01:08:57;3.22;;;0.65;;
48751;SDS011;34544;48.836;9.174;2022-11-04T01:11:25;1.75;;;0.80;;
48751;SDS011;34544;48.836;9.174;2022-11-04T01:13:55;2.55;;;0.90;;
48751;SDS011;34544;48.836;9.174;2022-11-04T01:16:22;2.38;;;0.80;;
48751;SDS011;34544;48.836;9.174;2022-11-04T01:18:48;1.95;;;1.10;;
48751;SDS011;34544;48.836;9.174;2022-11-04T01:21:14;1.35;;;0.68;;
48751;SDS011;34544;48.836;9.174;2022-11-04T01:23:41;1.75;;;0.93;;
48751;SDS011;34544;48.836;9.174;2022-11-04T01:26:09;2.00;;;1.02;;
48751;SDS011;34544;48.836;9.174;2022-11-04T01:28:43;1.77;;;0.75;;
48751;SDS011;34544;48.836;9.174;2022-11-04T01:31:10;2.65;;;1.17;;
48751;SDS011;34544;48.836;9.174;2022-11-04T01:33:37;1.35;;;0.70;;
48751;SDS011;34544;48.836;9.174;2022-11-04T01:36:04;1.88;;;0.90;;
48751;SDS011;34544;48.836;9.174;2022-11-04T01:38:30;2.10;;;0.65;;
48751;SDS011;34544;48.836;9.174;2022-11-04T01:40:56;2.20;;;1.23;;
48751;SDS011;34544;48.836;9.174;2022-11-04T01:43:30;2.65;;;1.00;;
48751;SDS011;34544;48.836;9.174;2022-11-04T01:46:10;0.98;;;0.85;;
48751;SDS011;34544;48.836;9.174;2022-11-04T01:49:02;2.28;;;1.00;;
48751;SDS011;34544;48.836;9.174;2022-11-04T01:51:48;1.02;;;0.65;;
48751;SDS011;34544;48.836;9.174;2022-11-04T01:54:17;1.15;;;0.77;;
48751;SDS011;34544;48.836;9.174;2022-11-04T01:56:44;0.93;;;0.63;;
48751;SDS011;34544;48.836;9.174;2022-11-04T01:59:15;1.05;;;0.63;;
48751;SDS011;34544;48.836;9.174;2022-11-04T02:01:45;1.35;;;0.73;;
48751;SDS011;34544;48.836;9.174;2022-11-04T02:04:11;4.40;;;0.90;;
48751;SDS011;34544;48.836;9.174;2022-11-04T02:06:51;1.08;;;0.90;;
48751;SDS011;34544;48.836;9.174;2022-11-04T02:09:19;1.60;;;0.93;;
48751;SDS011;34544;48.836;9.174;2022-11-04T02:11:46;0.65;;;0.52;;
48751;SDS011;34544;48.836;9.174;2022-11-04T02:14:30;0.85;;;0.65;;
48751;SDS011;34544;48.836;9.174;2022-11-04T02:17:03;1.63;;;0.70;;
48751;SDS011;34544;48.836;9.174;2022-11-04T02:28:02;0.85;;;0.47;;
48751;SDS011;34544;48.836;9.174;2022-11-04T02:30:40;1.13;;;0.57;;
48751;SDS011;34544;48.836;9.174;2022-11-04T02:33:20;1.02;;;0.60;;
48751;SDS011;34544;48.836;9.174;2022-11-04T02:35:56;1.38;;;0.60;;
48751;SDS011;34544;48.836;9.174;2022-11-04T02:46:37;0.75;;;0.47;;
48751;SDS011;34544;48.836;9.174;2022-11-04T02:49:12;1.15;;;0.55;;
48751;SDS011;34544;48.836;9.174;2022-11-04T02:51:44;3.20;;;0.50;;
48751;SDS011;34544;48.836;9.174;2022-11-04T02:54:29;1.58;;;0.77;;
48751;SDS011;34544;48.836;9.174;2022-11-04T02:57:22;1.58;;;0.60;;
48751;SDS011;34544;48.836;9.174;2022-11-04T02:59:52;3.45;;;0.80;;
48751;SDS011;34544;48.836;9.174;2022-11-04T03:02:26;3.83;;;0.93;;
48751;SDS011;34544;48.836;9.174;2022-11-04T03:05:01;1.65;;;0.70;;
48751;SDS011;34544;48.836;9.174;2022-11-04T03:07:31;0.98;;;0.52;;
48751;SDS011;34544;48.836;9.174;2022-11-04T03:10:03;1.45;;;0.63;;
48751;SDS011;34544;48.836;9.174;2022-11-04T03:12:34;1.00;;;0.30;;
48751;SDS011;34544;48.836;9.174;2022-11-04T03:15:16;4.88;;;0.43;;
48751;SDS011;34544;48.836;9.174;2022-11-04T03:17:55;2.28;;;0.73;;
48751;SDS011;34544;48.836;9.174;2022-11-04T03:20:47;0.70;;;0.43;;
48751;SDS011;34544;48.836;9.174;2022-11-04T03:23:14;2.20;;;0.57;;
48751;SDS011;34544;48.836;9.174;2022-11-04T03:25:41;1.67;;;0.47;;
48751;SDS011;34544;48.836;9.174;2022-11-04T03:28:22;2.13;;;0.57;;
48751;SDS011;34544;48.836;9.174;2022-11-04T03:31:03;1.67;;;0.80;;
48751;SDS011;34544;48.836;9.174;2022-11-04T03:33:37;7.03;;;0.70;;
48751;SDS011;34544;48.836;9.174;2022-11-04T03:36:08;2.00;;;0.52;;
48751;SDS011;34544;48.836;9.174;2022-11-04T03:38:34;1.60;;;0.55;;
48751;SDS011;34544;48.836;9.174;2022-11-04T03:41:01;1.40;;;0.50;;
48751;SDS011;34544;48.836;9.174;2022-11-04T03:43:31;0.75;;;0.57;;
48751;SDS011;34544;48.836;9.174;2022-11-04T03:46:00;0.85;;;0.50;;
48751;SDS011;34544;48.836;9.174;2022-11-04T03:48:25;0.98;;;0.68;;
48751;SDS011;34544;48.836;9.174;2022-11-04T03:50:51;3.63;;;0.90;;
48751;SDS011;34544;48.836;9.174;2022-11-04T03:53:23;0.73;;;0.60;;
48751;SDS011;34544;48.836;9.174;2022-11-04T03:59:00;2.42;;;0.45;;
48751;SDS011;34544;48.836;9.174;2022-11-04T04:04:16;2.05;;;1.20;;
48751;SDS011;34544;48.836;9.174;2022-11-04T04:06:44;7.40;;;1.95;;
48751;SDS011;34544;48.836;9.174;2022-11-04T04:09:14;5.75;;;2.70;;
48751;SDS011;34544;48.836;9.174;2022-11-04T04:11:54;3.92;;;2.25;;
48751;SDS011;34544;48.836;9.174;2022-11-04T04:14:38;1.60;;;1.20;;
48751;SDS011;34544;48.836;9.174;2022-11-04T04:19:39;2.42;;;1.17;;
48751;SDS011;34544;48.836;9.174;2022-11-04T04:22:13;4.25;;;2.50;;
48751;SDS011;34544;48.836;9.174;2022-11-04T04:24:44;6.80;;;3.42;;
48751;SDS011;34544;48.836;9.174;2022-11-04T04:27:30;9.60;;;3.42;;
48751;SDS011;34544;48.836;9.174;2022-11-04T04:29:59;7.82;;;3.40;;
48751;SDS011;34544;48.836;9.174;2022-11-04T04:32:29;4.70;;;2.38;;
48751;SDS011;34544;48.836;9.174;2022-11-04T04:34:59;7.18;;;1.85;;
48751;SDS011;34544;48.836;9.174;2022-11-04T04:37:44;4.15;;;1.90;;
48751;SDS011;34544;48.836;9.174;2022-11-04T04:40:11;4.47;;;2.75;;
48751;SDS011;34544;48.836;9.174;2022-11-04T04:42:59;7.82;;;4.07;;
48751;SDS011;34544;48.836;9.174;2022-11-04T04:45:51;5.57;;;3.70;;
48751;SDS011;34544;48.836;9.174;2022-11-04T04:48:17;6.05;;;2.72;;
48751;SDS011;34544;48.836;9.174;2022-11-04T04:50:44;7.57;;;2.33;;
48751;SDS011;34544;48.836;9.174;2022-11-04T04:53:15;6.50;;;2.25;;
48751;SDS011;34544;48.836;9.174;2022-11-04T04:55:40;4.30;;;1.95;;
48751;SDS011;34544;48.836;9.174;2022-11-04T04:58:06;4.72;;;1.67;;
48751;SDS011;34544;48.836;9.174;2022-11-04T05:00:32;4.28;;;1.55;;
48751;SDS011;34544;48.836;9.174;2022-11-04T05:02:58;5.53;;;2.13;;
48751;SDS011;34544;48.836;9.174;2022-11-04T05:05:24;5.30;;;1.40;;
48751;SDS011;34544;48.836;9.174;2022-11-04T05:07:50;10.00;;;3.92;;
48751;SDS011;34544;48.836;9.174;2022-11-04T05:10:16;10.02;;;3.88;;
48751;SDS011;34544;48.836;9.174;2022-11-04T05:12:42;6.85;;;3.13;;
48751;SDS011;34544;48.836;9.174;2022-11-04T05:15:27;9.27;;;2.58;;
48751;SDS011;34544;48.836;9.174;2022-11-04T05:17:57;7.47;;;3.38;;
48751;SDS011;34544;48.836;9.174;2022-11-04T05:20:24;13.38;;;5.50;;
48751;SDS011;34544;48.836;9.174;2022-11-04T05:22:50;10.70;;;4.55;;
48751;SDS011;34544;48.836;9.174;2022-11-04T05:25:18;7.53;;;3.80;;
48751;SDS011;34544;48.836;9.174;2022-11-04T05:27:43;9.40;;;3.70;;
48751;SDS011;34544;48.836;9.174;2022-11-04T05:30:09;8.15;;;3.60;;
48751;SDS011;34544;48.836;9.174;2022-11-04T05:32:35;8.35;;;4.43;;
48751;SDS011;34544;48.836;9.174;2022-11-04T05:35:01;8.48;;;3.10;;
48751;SDS011;34544;48.836;9.174;2022-11-04T05:37:26;2.92;;;1.90;;
48751;SDS011;34544;48.836;9.174;2022-11-04T05:39:52;5.70;;;2.35;;
48751;SDS011;34544;48.836;9.174;2022-11-04T05:42:18;4.63;;;2.47;;
48751;SDS011;34544;48.836;9.174;2022-11-04T05:44:43;6.40;;;2.42;;
48751;SDS011;34544;48.836;9.174;2022-11-04T05:47:09;3.13;;;1.80;;
48751;SDS011;34544;48.836;9.174;2022-11-04T05:49:35;3.95;;;2.25;;
48751;SDS011;34544;48.836;9.174;2022-11-04T05:52:00;6.00;;;2.65;;
48751;SDS011;34544;48.836;9.174;2022-11-04T05:54:26;4.43;;;2.33;;
48751;SDS011;34544;48.836;9.174;2022-11-04T05:56:52;4.40;;;2.50;;
48751;SDS011;34544;48.836;9.174;2022-11-04T05:59:17;4.68;;;3.00;;
48751;SDS011;34544;48.836;9.174;2022-11-04T06:01:43;5.57;;;2.80;;
48751;SDS011;34544;48.836;9.174;2022-11-04T06:04:13;5.68;;;2.53;;
48751;SDS011;34544;48.836;9.174;2022-11-04T06:06:40;7.15;;;2.28;;
48751;SDS011;34544;48.836;9.174;2022-11-04T06:09:06;4.35;;;3.20;;
48751;SDS011;34544;48.836;9.174;2022-11-04T06:11:32;5.90;;;2.42;;
48751;SDS011;34544;48.836;9.174;2022-11-04T06:13:58;2.67;;;2.03;;
48751;SDS011;34544;48.836;9.174;2022-11-04T06:16:25;7.43;;;2.17;;
48751;SDS011;34544;48.836;9.174;2022-11-04T06:18:51;3.28;;;2.47;;
48751;SDS011;34544;48.836;9.174;2022-11-04T06:21:19;5.50;;;2.65;;
48751;SDS011;34544;48.836;9.174;2022-11-04T06:23:49;7.53;;;2.90;;
48751;SDS011;34544;48.836;9.174;2022-11-04T06:26:15;7.78;;;2.92;;
48751;SDS011;34544;48.836;9.174;2022-11-04T06:28:41;5.10;;;2.80;;
48751;SDS011;34544;48.836;9.174;2022-11-04T06:31:08;8.50;;;3.30;;
48751;SDS011;34544;48.836;9.174;2022-11-04T06:33:36;5.80;;;2.60;;
48751;SDS011;34544;48.836;9.174;2022-11-04T06:36:02;8.18;;;2.72;;
48751;SDS011;34544;48.836;9.174;2022-11-04T06:38:30;5.03;;;2.58;;
48751;SDS011;34544;48.836;9.174;2022-11-04T06:40:57;9.05;;;2.30;;
48751;SDS011;34544;48.836;9.174;2022-11-04T06:43:22;3.90;;;2.25;;
48751;SDS011;34544;48.836;9.174;2022-11-04T06:45:54;5.70;;;1.65;;
48751;SDS011;34544;48.836;9.174;2022-11-04T06:48:21;3.03;;;1.90;;
48751;SDS011;34544;48.836;9.174;2022-11-04T06:50:47;4.97;;;2.85;;
48751;SDS011;34544;48.836;9.174;2022-11-04T06:53:12;7.65;;;1.83;;
48751;SDS011;34544;48.836;9.174;2022-11-04T06:55:38;5.45;;;3.13;;
48751;SDS011;34544;48.836;9.174;2022-11-04T06:58:04;11.70;;;7.80;;
48751;SDS011;34544;48.836;9.174;2022-11-04T07:00:29;7.55;;;3.63;;
48751;SDS011;34544;48.836;9.174;2022-11-04T07:02:56;6.00;;;2.08;;
48751;SDS011;34544;48.836;9.174;2022-11-04T07:05:21;4.57;;;2.17;;
48751;SDS011;34544;48.836;9.174;2022-11-04T07:07:47;6.75;;;2.15;;
48751;SDS011;34544;48.836;9.174;2022-11-04T07:10:13;8.20;;;2.03;;
48751;SDS011;34544;48.836;9.174;2022-11-04T07:12:39;4.25;;;1.90;;
48751;SDS011;34544;48.836;9.174;2022-11-04T07:15:05;3.92;;;2.03;;
48751;SDS011;34544;48.836;9.174;2022-11-04T07:17:31;4.88;;;2.30;;
48751;SDS011;34544;48.836;9.174;2022-11-04T07:19:56;3.40;;;2.05;;
48751;SDS011;34544;48.836;9.174;2022-11-04T07:22:22;4.88;;;1.80;;
48751;SDS011;34544;48.836;9.174;2022-11-04T07:24:48;5.72;;;2.17;;
48751;SDS011;34544;48.836;9.174;2022-11-04T07:27:13;4.45;;;2.10;;
48751;SDS011;34544;48.836;9.174;2022-11-04T07:29:39;3.47;;;1.95;;
48751;SDS011;34544;48.836;9.174;2022-11-04T07:32:05;5.65;;;2.10;;
48751;SDS011;34544;48.836;9.174;2022-11-04T07:34:31;4.53;;;1.92;;
48751;SDS011;34544;48.836;9.174;2022-11-04T07:36:56;1.67;;;1.40;;
48751;SDS011;34544;48.836;9.174;2022-11-04T07:39:22;7.70;;;1.85;;
48751;SDS011;34544;48.836;9.174;2022-11-04T07:41:48;6.28;;;2.05;;
48751;SDS011;34544;48.836;9.174;2022-11-04T07:44:13;3.50;;;2.10;;
48751;SDS011;34544;48.836;9.174;2022-11-04T07:46:39;2.13;;;1.70;;
48751;SDS011;34544;48.836;9.174;2022-11-04T07:49:05;6.80;;;2.13;;
48751;SDS011;34544;48.836;9.174;2022-11-04T07:51:32;5.32;;;2.63;;
48751;SDS011;34544;48.836;9.174;2022-11-04T07:53:58;7.00;;;1.90;;
48751;SDS011;34544;48.836;9.174;2022-11-04T07:56:24;5.03;;;1.90;;
48751;SDS011;34544;48.836;9.174;2022-11-04T07:58:50;3.63;;;1.80;;
48751;SDS011;34544;48.836;9.174;2022-11-04T08:01:17;4.75;;;1.38;;
48751;SDS011;34544;48.836;9.174;2022-11-04T08:03:47;4.78;;;1.67;;
48751;SDS011;34544;48.836;9.174;2022-11-04T08:06:16;3.78;;;1.90;;
48751;SDS011;34544;48.836;9.174;2022-11-04T08:08:43;4.68;;;1.35;;
48751;SDS011;34544;48.836;9.174;2022-11-04T08:11:10;1.92;;;1.17;;
48751;SDS011;34544;48.836;9.174;2022-11-04T08:13:37;5.35;;;1.55;;
48751;SDS011;34544;48.836;9.174;2022-11-04T08:16:04;3.67;;;1.30;;
48751;SDS011;34544;48.836;9.174;2022-11-04T08:18:41;2.88;;;1.00;;
48751;SDS011;34544;48.836;9.174;2022-11-04T08:21:07;1.75;;;0.77;;
48751;SDS011;34544;48.836;9.174;2022-11-04T08:23:34;10.15;;;1.52;;
48751;SDS011;34544;48.836;9.174;2022-11-04T08:26:00;3.08;;;1.33;;
48751;SDS011;34544;48.836;9.174;2022-11-04T08:28:26;4.20;;;2.00;;
48751;SDS011;34544;48.836;9.174;2022-11-04T08:30:58;10.90;;;1.95;;
48751;SDS011;34544;48.836;9.174;2022-11-04T08:33:26;8.15;;;3.13;;
48751;SDS011;34544;48.836;9.174;2022-11-04T08:35:54;12.48;;;2.22;;
48751;SDS011;34544;48.836;9.174;2022-11-04T08:38:25;9.00;;;1.57;;
48751;SDS011;34544;48.836;9.174;2022-11-04T08:40:50;1.55;;;0.98;;
48751;SDS011;34544;48.836;9.174;2022-11-04T08:43:17;5.07;;;1.00;;
48751;SDS011;34544;48.836;9.174;2022-11-04T08:45:44;2.40;;;1.17;;
48751;SDS011;34544;48.836;9.174;2022-11-04T08:48:10;2.30;;;1.83;;
48751;SDS011;34544;48.836;9.174;2022-11-04T08:50:36;1.35;;;0.90;;
48751;SDS011;34544;48.836;9.174;2022-11-04T08:53:03;2.72;;;0.90;;
48751;SDS011;34544;48.836;9.174;2022-11-04T08:55:30;1.15;;;0.90;;
48751;SDS011;34544;48.836;9.174;2022-11-04T08:57:56;2.97;;;1.63;;
48751;SDS011;34544;48.836;9.174;2022-11-04T09:00:24;5.30;;;2.85;;
48751;SDS011;34544;48.836;9.174;2022-11-04T09:02:50;3.40;;;1.85;;
48751;SDS011;34544;48.836;9.174;2022-11-04T09:05:16;5.82;;;1.95;;
48751;SDS011;34544;48.836;9.174;2022-11-04T09:07:42;3.05;;;1.48;;
48751;SDS011;34544;48.836;9.174;2022-11-04T09:10:08;5.63;;;1.75;;
48751;SDS011;34544;48.836;9.174;2022-11-04T09:12:35;4.78;;;1.60;;
48751;SDS011;34544;48.836;9.174;2022-11-04T09:15:01;3.35;;;1.83;;
48751;SDS011;34544;48.836;9.174;2022-11-04T09:17:28;2.90;;;1.67;;
48751;SDS011;34544;48.836;9.174;2022-11-04T09:19:54;4.43;;;1.80;;
48751;SDS011;34544;48.836;9.174;2022-11-04T09:22:19;2.47;;;1.08;;
48751;SDS011;34544;48.836;9.174;2022-11-04T09:24:45;7.38;;;1.88;;
48751;SDS011;34544;48.836;9.174;2022-11-04T09:27:11;2.95;;;1.02;;
48751;SDS011;34544;48.836;9.174;2022-11-04T09:29:36;2.50;;;1.50;;
48751;SDS011;34544;48.836;9.174;2022-11-04T09:32:03;3.83;;;1.25;;
48751;SDS011;34544;48.836;9.174;2022-11-04T09:34:29;3.75;;;1.92;;
48751;SDS011;34544;48.836;9.174;2022-11-04T09:36:55;2.50;;;0.63;;
48751;SDS011;34544;48.836;9.174;2022-11-04T09:39:21;2.33;;;0.80;;
48751;SDS011;34544;48.836;9.174;2022-11-04T09:44:39;3.25;;;0.70;;
48751;SDS011;34544;48.836;9.174;2022-11-04T09:47:17;1.45;;;0.70;;
48751;SDS011;34544;48.836;9.174;2022-11-04T09:49:47;6.32;;;0.80;;
48751;SDS011;34544;48.836;9.174;2022-11-04T09:52:19;2.97;;;0.75;;
48751;SDS011;34544;48.836;9.174;2022-11-04T09:57:55;4.57;;;0.80;;
48751;SDS011;34544;48.836;9.174;2022-11-04T10:00:22;2.55;;;0.75;;
48751;SDS011;34544;48.836;9.174;2022-11-04T10:08:59;1.65;;;0.50;;
48751;SDS011;34544;48.836;9.174;2022-11-04T10:19:44;5.88;;;0.70;;
48751;SDS011;34544;48.836;9.174;2022-11-04T10:22:27;2.65;;;0.52;;
48751;SDS011;34544;48.836;9.174;2022-11-04T10:25:13;2.05;;;1.00;;
48751;SDS011;34544;48.836;9.174;2022-11-04T10:27:42;4.97;;;1.38;;
48751;SDS011;34544;48.836;9.174;2022-11-04T10:32:55;2.65;;;1.00;;
48751;SDS011;34544;48.836;9.174;2022-11-04T10:38:19;2.88;;;0.95;;
48751;SDS011;34544;48.836;9.174;2022-11-04T10:40:53;4.60;;;1.02;;
48751;SDS011;34544;48.836;9.174;2022-11-04T10:43:25;2.95;;;1.27;;
48751;SDS011;34544;48.836;9.174;2022-11-04T10:48:44;3.58;;;0.63;;
48751;SDS011;34544;48.836;9.174;2022-11-04T10:51:16;4.55;;;0.98;;
48751;SDS011;34544;48.836;9.174;2022-11-04T10:53:47;2.25;;;0.60;;
48751;SDS011;34544;48.836;9.174;2022-11-04T11:01:48;3.47;;;0.70;;
48751;SDS011;34544;48.836;9.174;2022-11-04T11:04:28;7.10;;;1.08;;
48751;SDS011;34544;48.836;9.174;2022-11-04T11:06:56;3.10;;;0.85;;
48751;SDS011;34544;48.836;9.174;2022-11-04T11:09:24;6.05;;;1.10;;
48751;SDS011;34544;48.836;9.174;2022-11-04T11:11:54;2.13;;;0.70;;
48751;SDS011;34544;48.836;9.174;2022-11-04T11:14:30;4.07;;;0.95;;
48751;SDS011;34544;48.836;9.174;2022-11-04T11:19:57;2.17;;;1.10;;
48751;SDS011;34544;48.836;9.174;2022-11-04T11:22:27;1.60;;;0.60;;
48751;SDS011;34544;48.836;9.174;2022-11-04T11:30:31;3.08;;;1.10;;
48751;SDS011;34544;48.836;9.174;2022-11-04T11:33:24;4.80;;;0.90;;
48751;SDS011;34544;48.836;9.174;2022-11-04T11:35:57;2.83;;;0.70;;
48751;SDS011;34544;48.836;9.174;2022-11-04T11:38:27;3.47;;;0.85;;
48751;SDS011;34544;48.836;9.174;2022-11-04T11:41:13;3.08;;;0.80;;
48751;SDS011;34544;48.836;9.174;2022-11-04T11:43:50;3.95;;;1.27;;
48751;SDS011;34544;48.836;9.174;2022-11-04T11:46:28;1.20;;;0.68;;
48751;SDS011;34544;48.836;9.174;2022-11-04T11:49:00;2.67;;;0.85;;
48751;SDS011;34544;48.836;9.174;2022-11-04T11:54:15;3.90;;;0.68;;
48751;SDS011;34544;48.836;9.174;2022-11-04T11:56:56;5.35;;;1.30;;
48751;SDS011;34544;48.836;9.174;2022-11-04T12:01:52;1.98;;;0.73;;
48751;SDS011;34544;48.836;9.174;2022-11-04T12:04:19;2.83;;;0.90;;
48751;SDS011;34544;48.836;9.174;2022-11-04T12:09:42;2.03;;;0.55;;
48751;SDS011;34544;48.836;9.174;2022-11-04T12:19:58;5.97;;;1.00;;
48751;SDS011;34544;48.836;9.174;2022-11-04T12:25:21;2.25;;;0.60;;
48751;SDS011;34544;48.836;9.174;2022-11-04T12:33:38;4.28;;;0.88;;
48751;SDS011;34544;48.836;9.174;2022-11-04T12:36:23;4.50;;;0.60;;
48751;SDS011;34544;48.836;9.174;2022-11-04T12:41:47;7.05;;;1.00;;
48751;SDS011;34544;48.836;9.174;2022-11-04T12:46:48;4.70;;;0.80;;
48751;SDS011;34544;48.836;9.174;2022-11-04T12:55:13;2.90;;;0.77;;
48751;SDS011;34544;48.836;9.174;2022-11-04T12:57:45;6.88;;;1.27;;
48751;SDS011;34544;48.836;9.174;2022-11-04T13:00:22;2.90;;;0.70;;
48751;SDS011;34544;48.836;9.174;2022-11-04T13:02:50;3.40;;;1.05;;
48751;SDS011;34544;48.836;9.174;2022-11-04T13:08:23;5.47;;;0.95;;
48751;SDS011;34544;48.836;9.174;2022-11-04T13:11:27;3.88;;;1.05;;
48751;SDS011;34544;48.836;9.174;2022-11-04T13:14:05;1.83;;;0.77;;
48751;SDS011;34544;48.836;9.174;2022-11-04T13:16:39;3.15;;;0.95;;
48751;SDS011;34544;48.836;9.174;2022-11-04T13:19:09;4.28;;;0.77;;
48751;SDS011;34544;48.836;9.174;2022-11-04T13:22:00;3.92;;;1.00;;
48751;SDS011;34544;48.836;9.174;2022-11-04T13:24:36;3.60;;;0.80;;
48751;SDS011;34544;48.836;9.174;2022-11-04T13:27:20;3.80;;;0.77;;
48751;SDS011;34544;48.836;9.174;2022-11-04T13:30:02;3.83;;;0.65;;
48751;SDS011;34544;48.836;9.174;2022-11-04T13:35:23;1.15;;;0.70;;
48751;SDS011;34544;48.836;9.174;2022-11-04T13:38:13;2.63;;;0.63;;
48751;SDS011;34544;48.836;9.174;2022-11-04T13:43:29;3.42;;;1.08;;
48751;SDS011;34544;48.836;9.174;2022-11-04T13:48:39;4.10;;;1.00;;
48751;SDS011;34544;48.836;9.174;2022-11-04T13:51:20;7.30;;;1.35;;
48751;SDS011;34544;48.836;9.174;2022-11-04T13:53:48;4.63;;;1.63;;
48751;SDS011;34544;48.836;9.174;2022-11-04T13:56:37;7.93;;;1.73;;
48751;SDS011;34544;48.836;9.174;2022-11-04T14:01:42;6.40;;;1.48;;
48751;SDS011;34544;48.836;9.174;2022-11-04T14:04:25;2.88;;;1.10;;
48751;SDS011;34544;48.836;9.174;2022-11-04T14:06:59;1.60;;;0.68;;
48751;SDS011;34544;48.836;9.174;2022-11-04T14:14:48;2.30;;;0.75;;
48751;SDS011;34544;48.836;9.174;2022-11-04T14:22:54;0.98;;;0.40;;
48751;SDS011;34544;48.836;9.174;2022-11-04T14:28:32;1.50;;;1.00;;
48751;SDS011;34544;48.836;9.174;2022-11-04T14:30:51;1.75;;;0.93;;
48751;SDS011;34544;48.836;9.174;2022-11-04T14:33:22;3.30;;;0.80;;
48751;SDS011;34544;48.836;9.174;2022-11-04T14:36:13;3.67;;;0.82;;
48751;SDS011;34544;48.836;9.174;2022-11-04T14:38:51;3.03;;;1.10;;
48751;SDS011;34544;48.836;9.174;2022-11-04T14:41:47;1.63;;;1.23;;
48751;SDS011;34544;48.836;9.174;2022-11-04T14:52:26;5.35;;;1.60;;
48751;SDS011;34544;48.836;9.174;2022-11-04T14:57:41;2.97;;;2.38;;
48751;SDS011;34544;48.836;9.174;2022-11-04T15:03:03;3.47;;;1.70;;
48751;SDS011;34544;48.836;9.174;2022-11-04T15:06:21;1.00;;;0.52;;
48751;SDS011;34544;48.836;9.174;2022-11-04T15:08:36;4.75;;;1.35;;
48751;SDS011;34544;48.836;9.174;2022-11-04T15:11:12;0.93;;;0.65;;
48751;SDS011;34544;48.836;9.174;2022-11-04T15:16:29;1.02;;;0.45;;
48751;SDS011;34544;48.836;9.174;2022-11-04T15:18:55;3.63;;;1.05;;
48751;SDS011;34544;48.836;9.174;2022-11-04T15:21:22;0.85;;;0.82;;
48751;SDS011;34544;48.836;9.174;2022-11-04T15:23:49;2.42;;;0.80;;
48751;SDS011;34544;48.836;9.174;2022-11-04T15:26:20;1.83;;;1.08;;
48751;SDS011;34544;48.836;9.174;2022-11-04T15:28:49;1.02;;;0.45;;
48751;SDS011;34544;48.836;9.174;2022-11-04T15:31:18;1.13;;;0.50;;
48751;SDS011;34544;48.836;9.174;2022-11-04T15:33:47;1.10;;;0.47;;
48751;SDS011;34544;48.836;9.174;2022-11-04T15:38:49;2.75;;;0.90;;
48751;SDS011;34544;48.836;9.174;2022-11-04T15:41:19;3.67;;;1.30;;
48751;SDS011;34544;48.836;9.174;2022-11-04T15:44:11;4.40;;;1.15;;
48751;SDS011;34544;48.836;9.174;2022-11-04T15:46:50;3.13;;;1.40;;
48751;SDS011;34544;48.836;9.174;2022-11-04T15:49:24;2.58;;;1.30;;
48751;SDS011;34544;48.836;9.174;2022-11-04T15:52:04;6.60;;;2.30;;
48751;SDS011;34544;48.836;9.174;2022-11-04T15:54:36;2.17;;;1.40;;
48751;SDS011;34544;48.836;9.174;2022-11-04T15:57:14;3.10;;;1.10;;
48751;SDS011;34544;48.836;9.174;2022-11-04T16:02:37;5.20;;;2.20;;
48751;SDS011;34544;48.836;9.174;2022-11-04T16:07:36;4.05;;;1.55;;
48751;SDS011;34544;48.836;9.174;2022-11-04T16:10:26;3.42;;;1.05;;
48751;SDS011;34544;48.836;9.174;2022-11-04T16:15:41;4.45;;;1.92;;
48751;SDS011;34544;48.836;9.174;2022-11-04T16:21:08;2.13;;;1.38;;
48751;SDS011;34544;48.836;9.174;2022-11-04T16:23:47;3.37;;;1.97;;
48751;SDS011;34544;48.836;9.174;2022-11-04T16:26:18;3.63;;;1.65;;
48751;SDS011;34544;48.836;9.174;2022-11-04T16:28:53;2.45;;;1.30;;
48751;SDS011;34544;48.836;9.174;2022-11-04T16:33:46;5.43;;;2.28;;
48751;SDS011;34544;48.836;9.174;2022-11-04T16:36:15;4.75;;;1.70;;
48751;SDS011;34544;48.836;9.174;2022-11-04T16:41:20;3.33;;;2.03;;
48751;SDS011;34544;48.836;9.174;2022-11-04T16:43:47;5.97;;;1.98;;
48751;SDS011;34544;48.836;9.174;2022-11-04T16:46:13;4.80;;;2.40;;
48751;SDS011;34544;48.836;9.174;2022-11-04T16:48:40;3.60;;;1.45;;
48751;SDS011;34544;48.836;9.174;2022-11-04T16:51:05;4.53;;;2.40;;
48751;SDS011;34544;48.836;9.174;2022-11-04T16:53:33;5.05;;;2.25;;
48751;SDS011;34544;48.836;9.174;2022-11-04T16:55:59;6.43;;;2.53;;
48751;SDS011;34544;48.836;9.174;2022-11-04T16:58:24;7.03;;;3.40;;
48751;SDS011;34544;48.836;9.174;2022-11-04T17:00:52;4.90;;;3.08;;
48751;SDS011;34544;48.836;9.174;2022-11-04T17:06:12;5.32;;;2.65;;
48751;SDS011;34544;48.836;9.174;2022-11-04T17:08:39;6.97;;;2.65;;
48751;SDS011;34544;48.836;9.174;2022-11-04T17:11:06;5.85;;;2.33;;
48751;SDS011;34544;48.836;9.174;2022-11-04T17:13:32;5.05;;;3.10;;
48751;SDS011;34544;48.836;9.174;2022-11-04T17:15:58;5.63;;;2.50;;
48751;SDS011;34544;48.836;9.174;2022-11-04T17:18:24;5.72;;;2.70;;
48751;SDS011;34544;48.836;9.174;2022-11-04T17:20:51;11.23;;;3.55;;
48751;SDS011;34544;48.836;9.174;2022-11-04T17:23:19;9.27;;;2.70;;
48751;SDS011;34544;48.836;9.174;2022-11-04T17:25:46;7.60;;;2.65;;
48751;SDS011;34544;48.836;9.174;2022-11-04T17:28:12;4.50;;;2.40;;
48751;SDS011;34544;48.836;9.174;2022-11-04T17:30:38;7.20;;;2.95;;
48751;SDS011;34544;48.836;9.174;2022-11-04T17:33:14;5.63;;;2.65;;
48751;SDS011;34544;48.836;9.174;2022-11-04T17:35:41;9.85;;;3.75;;
48751;SDS011;34544;48.836;9.174;2022-11-04T17:38:09;6.90;;;2.92;;
48751;SDS011;34544;48.836;9.174;2022-11-04T17:40:36;7.85;;;3.20;;
48751;SDS011;34544;48.836;9.174;2022-11-04T17:43:21;5.45;;;3.20;;
48751;SDS011;34544;48.836;9.174;2022-11-04T17:46:06;4.45;;;3.70;;
48751;SDS011;34544;48.836;9.174;2022-11-04T17:48:50;6.85;;;3.15;;
48751;SDS011;34544;48.836;9.174;2022-11-04T17:51:16;5.25;;;2.40;;
48751;SDS011;34544;48.836;9.174;2022-11-04T17:53:42;4.45;;;2.83;;
48751;SDS011;34544;48.836;9.174;2022-11-04T17:56:14;6.88;;;3.38;;
48751;SDS011;34544;48.836;9.174;2022-11-04T17:58:41;4.10;;;3.08;;